aviador You're here:

LFJL Decoded Metar

METZ in FRANCE
Report Time2017-12-16 16:30:00
UTC Time2017-12-16 16:49:23
Flight Rules mvfr MVFR
Wind280° at 07 kt
W.Decomp.*RWY 22: 3.5 kt HW 6.1 kt RCW
W.Rank280° ranks 20
Current wind is below 280° avg. (7.9)
Visibility9999 m
Phenomena:N/A
Clouds:Few 016 Hf
Broken 024 Hf
Broken 064 Hf
Expected CloudBase > 400 ft AGL from Temp-Dew spread
Ceiling2,400 ft
Temp02°C (ISA -11)
Dew Point01°C (93% RH)
AAT-2.4°C
QNH1016 hPa
Density Alt-512 ft
Elevation866 ft
Report Wrong Elevation
Raw Report
LFJL 161630Z AUTO 28007KT 9999 FEW016 BKN024 BKN064 02/01 Q1016
TEMPO 3000 -SHRASN BKN008=

Extra information for LFJL:More info

Metar Taf Metar & Taf Last 4 Metars F.Rules Stats Wind Profile Meteogram Temp Stats Airport Information Weather charts Add Link Nearby VenuesMetar ALERT Operation Metar Decoded Social comments